createdAt,value
2022-08-17T00:00:00.417Z,71.80
2022-08-17T00:02:27.968Z,72.20
2022-08-17T00:04:56.113Z,72.30
2022-08-17T00:07:23.269Z,72.50
2022-08-17T00:09:50.309Z,72.40
2022-08-17T00:12:43.627Z,72.80
2022-08-17T00:15:05.299Z,72.60
2022-08-17T00:17:32.063Z,72.50
2022-08-17T00:20:02.978Z,72.60
2022-08-17T00:22:33.653Z,72.80
2022-08-17T00:25:03.563Z,72.90
2022-08-17T00:27:30.959Z,72.60
2022-08-17T00:29:57.800Z,72.70
2022-08-17T00:33:13.797Z,72.90
2022-08-17T00:35:18.470Z,73.00
2022-08-17T00:37:47.838Z,73.10
2022-08-17T00:40:18.100Z,73.20
2022-08-17T00:42:46.884Z,73.40
2022-08-17T00:45:16.232Z,73.30
2022-08-17T00:47:44.120Z,73.50
2022-08-17T00:50:15.025Z,73.50
2022-08-17T00:52:52.333Z,73.50
2022-08-17T00:55:20.821Z,73.60
2022-08-17T00:57:55.199Z,73.80
2022-08-17T01:00:42.264Z,73.90
2022-08-17T01:03:15.021Z,74.40
2022-08-17T01:05:43.251Z,73.70
2022-08-17T01:08:17.929Z,73.90
2022-08-17T01:10:57.287Z,73.80
2022-08-17T01:13:30.259Z,73.60
2022-08-17T01:16:06.883Z,73.50
2022-08-17T01:18:36.893Z,73.70
2022-08-17T01:21:09.205Z,73.90
2022-08-17T01:23:40.374Z,74.10
2022-08-17T01:26:07.180Z,73.80
2022-08-17T01:28:53.965Z,73.80
2022-08-17T01:31:24.015Z,73.90
2022-08-17T01:33:53.469Z,73.80
2022-08-17T01:36:20.761Z,73.80
2022-08-17T01:38:47.716Z,73.80
2022-08-17T01:41:17.058Z,73.80
2022-08-17T01:43:53.975Z,74.00
2022-08-17T01:46:27.096Z,74.40
2022-08-17T01:48:55.362Z,74.40
2022-08-17T01:51:22.840Z,74.60
2022-08-17T01:53:53.328Z,74.70
2022-08-17T01:56:25.979Z,74.50
2022-08-17T01:58:53.246Z,74.40
2022-08-17T02:01:24.318Z,74.40
2022-08-17T02:03:53.194Z,74.30
2022-08-17T02:06:28.449Z,74.50
2022-08-17T02:09:02.464Z,74.40
2022-08-17T02:11:32.307Z,74.50
2022-08-17T02:14:03.929Z,74.70
2022-08-17T02:16:37.420Z,74.70
2022-08-17T02:19:11.345Z,74.80
2022-08-17T02:21:39.353Z,74.80
2022-08-17T02:24:07.876Z,74.80
2022-08-17T02:26:37.287Z,75.00
2022-08-17T02:29:04.346Z,74.90
2022-08-17T02:31:31.318Z,74.90
2022-08-17T02:34:04.657Z,75.00
2022-08-17T02:36:34.204Z,74.90
2022-08-17T02:39:06.296Z,74.70
2022-08-17T02:41:33.852Z,75.00
2022-08-17T02:44:01.147Z,75.30
2022-08-17T02:46:28.399Z,75.40
2022-08-17T02:48:55.323Z,75.10
2022-08-17T02:51:22.940Z,75.10
2022-08-17T02:53:49.957Z,75.60
2022-08-17T02:56:21.430Z,75.00
2022-08-17T02:58:48.353Z,75.20
2022-08-17T03:01:15.338Z,75.20
2022-08-17T03:03:42.572Z,75.10
2022-08-17T03:06:10.342Z,74.90
2022-08-17T03:08:38.176Z,75.00
2022-08-17T03:11:05.451Z,74.80
2022-08-17T03:13:32.280Z,74.70
2022-08-17T03:15:59.162Z,74.90
2022-08-17T03:18:27.953Z,74.90
2022-08-17T03:20:57.609Z,74.80
2022-08-17T03:23:25.702Z,74.80
2022-08-17T03:25:54.075Z,74.90
2022-08-17T03:28:22.793Z,75.00
2022-08-17T03:30:51.259Z,75.10
2022-08-17T03:33:18.927Z,75.20
2022-08-17T03:35:46.033Z,75.30
2022-08-17T03:38:15.311Z,75.10
2022-08-17T03:40:56.437Z,75.20
2022-08-17T03:43:31.476Z,75.20
2022-08-17T03:46:34.114Z,75.30
2022-08-17T03:49:23.844Z,75.40
2022-08-17T03:52:09.753Z,75.40
2022-08-17T03:54:55.767Z,75.50
2022-08-17T03:57:23.183Z,75.60
2022-08-17T03:59:50.054Z,75.70
2022-08-17T04:02:24.299Z,75.70
2022-08-17T04:04:54.228Z,75.60
2022-08-17T04:07:22.742Z,75.60
2022-08-17T04:09:50.104Z,75.70
2022-08-17T04:12:19.237Z,75.80
2022-08-17T04:14:52.732Z,76.00
2022-08-17T04:17:22.259Z,76.10
2022-08-17T04:19:49.100Z,76.10
2022-08-17T04:22:30.292Z,76.30
2022-08-17T04:25:03.567Z,76.40
2022-08-17T04:27:32.491Z,76.50
2022-08-17T04:29:59.360Z,76.50
2022-08-17T04:33:00.591Z,77.10
2022-08-17T04:35:18.918Z,77.50
2022-08-17T04:37:45.752Z,77.60
2022-08-17T04:40:31.462Z,77.70
2022-08-17T04:43:18.785Z,78.10
2022-08-17T04:45:58.889Z,78.00
2022-08-17T04:48:35.969Z,78.40
2022-08-17T04:51:17.064Z,78.40
2022-08-17T04:53:54.197Z,78.60
2022-08-17T04:56:23.138Z,78.70
2022-08-17T04:58:51.908Z,78.60
2022-08-17T05:01:24.146Z,78.80
2022-08-17T05:03:54.545Z,79.10
2022-08-17T05:06:26.193Z,79.10
2022-08-17T05:08:54.102Z,79.30
2022-08-17T05:11:22.087Z,79.30
2022-08-17T05:13:50.536Z,79.30
2022-08-17T05:16:19.278Z,79.50
2022-08-17T05:18:47.073Z,79.80
2022-08-17T05:21:15.413Z,79.80
2022-08-17T05:23:43.529Z,80.10
2022-08-17T05:26:25.805Z,80.00
2022-08-17T05:28:56.994Z,80.10
2022-08-17T05:31:25.459Z,80.50
2022-08-17T05:33:52.525Z,80.20
2022-08-17T05:36:42.985Z,80.60
2022-08-17T05:39:06.666Z,80.50
2022-08-17T05:41:33.474Z,80.40
2022-08-17T05:44:00.280Z,80.70
2022-08-17T05:46:37.377Z,80.80
2022-08-17T05:49:08.686Z,81.10
2022-08-17T05:52:06.164Z,81.00
2022-08-17T05:54:41.773Z,81.00
2022-08-17T05:57:43.527Z,81.30
2022-08-17T06:00:31.679Z,81.00
2022-08-17T06:03:24.531Z,81.40
2022-08-17T06:05:57.743Z,81.70
2022-08-17T06:08:57.644Z,81.90
2022-08-17T06:11:24.445Z,81.80
2022-08-17T06:14:09.991Z,82.00
2022-08-17T06:16:43.421Z,81.00
2022-08-17T06:19:21.063Z,80.40
2022-08-17T06:21:51.492Z,80.90
2022-08-17T06:24:34.253Z,81.30
2022-08-17T06:27:24.487Z,81.40
2022-08-17T06:29:56.783Z,81.70
2022-08-17T06:32:25.088Z,81.60
2022-08-17T06:34:52.529Z,81.70
2022-08-17T06:38:00.749Z,81.80
2022-08-17T06:40:56.330Z,82.00
2022-08-17T06:43:48.478Z,82.00
2022-08-17T06:46:35.863Z,82.10
2022-08-17T06:49:28.631Z,82.50
2022-08-17T06:52:07.953Z,82.30
2022-08-17T06:55:02.985Z,82.60
2022-08-17T06:57:33.321Z,82.90
2022-08-17T07:00:09.350Z,83.10
2022-08-17T07:03:14.032Z,82.90
2022-08-17T07:05:51.999Z,83.30
2022-08-17T07:08:38.157Z,83.10
2022-08-17T07:11:13.793Z,83.20
2022-08-17T07:13:59.122Z,83.20
2022-08-17T07:16:48.566Z,83.00
2022-08-17T07:19:22.692Z,83.10
2022-08-17T07:22:01.637Z,83.30
2022-08-17T07:24:48.521Z,83.70
2022-08-17T07:27:17.338Z,83.70
2022-08-17T07:30:10.677Z,83.80
2022-08-17T07:32:57.366Z,84.10
2022-08-17T07:35:31.404Z,84.10
2022-08-17T07:38:24.820Z,84.30
2022-08-17T07:41:02.149Z,84.60
2022-08-17T07:43:41.669Z,84.50
2022-08-17T07:46:30.178Z,85.20
2022-08-17T07:48:59.174Z,84.60
2022-08-17T07:51:36.557Z,84.80
2022-08-17T07:54:26.901Z,84.80
2022-08-17T07:57:20.207Z,85.30
2022-08-17T08:00:16.297Z,85.30
2022-08-17T08:02:46.028Z,85.20
2022-08-17T08:05:49.536Z,85.50
2022-08-17T08:08:25.806Z,85.50
2022-08-17T08:11:08.193Z,85.60
2022-08-17T08:13:42.627Z,85.50
2022-08-17T08:16:29.606Z,85.70
2022-08-17T08:19:00.261Z,85.60
2022-08-17T08:22:10.152Z,85.60
2022-08-17T08:24:49.718Z,85.60
2022-08-17T08:27:27.697Z,85.80
2022-08-17T08:30:04.979Z,85.60
2022-08-17T08:32:37.643Z,85.30
2022-08-17T08:35:31.521Z,85.30
2022-08-17T08:38:07.580Z,85.10
2022-08-17T08:40:56.011Z,85.10
2022-08-17T08:43:38.800Z,85.70
2022-08-17T08:46:35.391Z,86.00
2022-08-17T08:49:59.553Z,85.10
2022-08-17T08:52:45.087Z,86.10
2022-08-17T08:55:37.956Z,86.00
2022-08-17T08:58:31.343Z,85.40
2022-08-17T09:01:19.041Z,84.80
2022-08-17T09:04:23.432Z,85.50
2022-08-17T09:07:38.850Z,84.40
2022-08-17T09:10:29.881Z,84.40
2022-08-17T09:13:16.686Z,84.20
2022-08-17T09:15:51.933Z,84.30
2022-08-17T09:19:01.474Z,84.80
2022-08-17T09:21:28.933Z,84.40
2022-08-17T09:24:20.781Z,84.40
2022-08-17T09:27:40.699Z,84.30
2022-08-17T09:30:11.424Z,83.50
2022-08-17T09:32:46.122Z,84.10
2022-08-17T09:35:36.982Z,84.50
2022-08-17T09:38:42.313Z,86.50
2022-08-17T09:41:20.762Z,87.40
2022-08-17T09:44:23.103Z,87.90
2022-08-17T09:46:55.913Z,87.40
2022-08-17T09:49:46.908Z,86.60
2022-08-17T09:52:27.879Z,86.20
2022-08-17T09:54:57.123Z,87.40
2022-08-17T09:57:31.387Z,88.10
2022-08-17T10:00:25.223Z,88.30
2022-08-17T10:03:14.788Z,88.20
2022-08-17T10:06:21.800Z,88.70
2022-08-17T10:09:14.017Z,89.20
2022-08-17T10:12:29.830Z,89.70
2022-08-17T10:15:27.705Z,89.60
2022-08-17T10:17:57.675Z,90.00
2022-08-17T10:21:12.461Z,90.00
2022-08-17T10:23:59.035Z,90.20
2022-08-17T10:26:28.186Z,90.00
2022-08-17T10:29:19.763Z,90.00
2022-08-17T10:31:56.167Z,90.00
2022-08-17T10:34:40.427Z,89.90
2022-08-17T10:37:38.316Z,90.10
2022-08-17T10:40:19.701Z,89.80
2022-08-17T10:42:57.353Z,89.50
2022-08-17T10:45:37.825Z,89.60
2022-08-17T10:48:08.579Z,89.30
2022-08-17T10:50:55.787Z,88.70
2022-08-17T10:53:51.052Z,88.80
2022-08-17T10:56:21.809Z,88.60
2022-08-17T10:58:54.063Z,89.00
2022-08-17T11:01:35.455Z,89.20
2022-08-17T11:04:17.676Z,89.70
2022-08-17T11:06:51.166Z,90.00
2022-08-17T11:09:30.300Z,89.50
2022-08-17T11:12:24.199Z,88.90
2022-08-17T11:14:50.977Z,88.50
2022-08-17T11:17:38.908Z,88.80
2022-08-17T11:20:21.114Z,89.30
2022-08-17T11:23:03.846Z,88.30
2022-08-17T11:25:46.948Z,88.80
2022-08-17T11:28:26.699Z,87.70
2022-08-17T11:31:06.323Z,87.40
2022-08-17T11:33:36.712Z,85.30
2022-08-17T11:36:33.130Z,86.00
2022-08-17T11:39:24.888Z,89.40
2022-08-17T11:42:11.724Z,86.70
2022-08-17T11:44:44.514Z,84.40
2022-08-17T11:47:35.004Z,85.40
2022-08-17T11:50:32.311Z,83.90
2022-08-17T11:53:01.252Z,82.90
2022-08-17T11:55:38.546Z,82.50
2022-08-17T11:58:29.564Z,82.80
2022-08-17T12:01:00.946Z,82.50
2022-08-17T12:03:34.057Z,82.00
2022-08-17T12:06:31.070Z,81.70
2022-08-17T12:09:09.658Z,81.00
2022-08-17T12:12:12.445Z,81.50
2022-08-17T12:15:16.458Z,83.30
2022-08-17T12:17:41.364Z,83.00
2022-08-17T12:20:35.362Z,82.70
2022-08-17T12:23:56.641Z,83.20
2022-08-17T12:26:30.492Z,81.30
2022-08-17T12:29:39.039Z,81.20
2022-08-17T12:31:55.432Z,79.60
2022-08-17T12:34:29.786Z,82.60
2022-08-17T12:37:02.210Z,84.40
2022-08-17T12:39:30.579Z,80.70
2022-08-17T12:42:02.759Z,81.90
2022-08-17T12:44:36.182Z,80.60
2022-08-17T12:47:23.241Z,80.30
2022-08-17T12:49:52.765Z,78.20
2022-08-17T12:52:28.806Z,79.10
2022-08-17T12:55:02.383Z,76.70
2022-08-17T12:57:37.973Z,77.90
2022-08-17T13:00:25.790Z,77.60
2022-08-17T13:02:54.754Z,76.60
2022-08-17T13:05:36.047Z,75.50
2022-08-17T13:08:14.519Z,76.00
2022-08-17T13:10:41.736Z,74.20
2022-08-17T13:13:26.358Z,76.00
2022-08-17T13:15:58.658Z,75.90
2022-08-17T13:18:48.560Z,76.20
2022-08-17T13:21:23.893Z,75.60
2022-08-17T13:24:01.875Z,74.90
2022-08-17T13:26:45.334Z,75.90
2022-08-17T13:29:35.271Z,76.30
2022-08-17T13:32:13.506Z,76.90
2022-08-17T13:34:55.073Z,75.50
2022-08-17T13:37:34.844Z,76.70
2022-08-17T13:40:23.819Z,77.40
2022-08-17T13:42:58.710Z,75.30
2022-08-17T13:45:39.166Z,78.30
2022-08-17T13:48:13.593Z,77.10
2022-08-17T13:50:59.533Z,76.60
2022-08-17T13:53:33.302Z,74.90
2022-08-17T13:56:33.363Z,76.70
2022-08-17T13:59:01.967Z,74.80
2022-08-17T14:01:47.471Z,73.50
2022-08-17T14:04:31.588Z,71.90
2022-08-17T14:07:13.741Z,75.20
2022-08-17T14:09:48.998Z,75.00
2022-08-17T14:12:19.810Z,74.60
2022-08-17T14:14:50.085Z,74.20
2022-08-17T14:17:19.073Z,75.30
2022-08-17T14:19:45.882Z,76.50
2022-08-17T14:22:43.414Z,74.40
2022-08-17T14:25:12.509Z,75.20
2022-08-17T14:27:52.614Z,74.50
2022-08-17T14:30:29.964Z,75.20
2022-08-17T14:32:58.513Z,73.70
2022-08-17T14:35:27.838Z,73.60
2022-08-17T14:37:54.822Z,71.20
2022-08-17T14:40:24.981Z,70.00
2022-08-17T14:42:53.345Z,73.50
2022-08-17T14:45:30.249Z,72.50
2022-08-17T14:48:01.559Z,70.10
2022-08-17T14:50:28.865Z,71.00
2022-08-17T14:53:01.319Z,71.80
2022-08-17T14:55:29.759Z,67.30
2022-08-17T14:57:57.018Z,70.80
2022-08-17T15:00:26.906Z,69.20
2022-08-17T15:02:58.494Z,72.70
2022-08-17T15:05:31.405Z,73.40
2022-08-17T15:07:59.292Z,71.10
2022-08-17T15:10:26.493Z,72.80
2022-08-17T15:12:53.808Z,70.40
2022-08-17T15:15:20.765Z,72.90
2022-08-17T15:17:51.675Z,72.00
2022-08-17T15:20:25.308Z,73.50
2022-08-17T15:22:55.903Z,73.10
2022-08-17T15:25:28.773Z,74.10
2022-08-17T15:27:56.020Z,70.90
2022-08-17T15:30:24.107Z,74.00
2022-08-17T15:32:55.340Z,73.50
2022-08-17T15:35:28.737Z,72.80
2022-08-17T15:38:11.181Z,72.70
2022-08-17T15:40:42.313Z,73.20
2022-08-17T15:43:16.009Z,74.40
2022-08-17T15:45:43.896Z,70.50
2022-08-17T15:48:14.219Z,72.90
2022-08-17T15:50:45.167Z,75.10
2022-08-17T15:53:14.398Z,75.90
2022-08-17T15:55:42.053Z,73.40
2022-08-17T15:58:09.881Z,76.50
2022-08-17T16:00:51.578Z,76.20
2022-08-17T16:03:57.402Z,77.20
2022-08-17T16:06:16.600Z,76.30
2022-08-17T16:08:47.259Z,75.90
2022-08-17T16:11:16.006Z,72.70
2022-08-17T16:13:51.296Z,71.10
2022-08-17T16:16:24.809Z,72.00
2022-08-17T16:18:53.541Z,73.90
2022-08-17T16:21:29.570Z,74.70
2022-08-17T16:24:05.124Z,76.20
2022-08-17T16:26:39.945Z,77.60
2022-08-17T16:29:07.918Z,77.20
2022-08-17T16:31:37.890Z,76.20
2022-08-17T16:34:17.372Z,76.70
2022-08-17T16:36:56.190Z,73.40
2022-08-17T16:39:29.138Z,72.70
2022-08-17T16:41:57.174Z,73.00
2022-08-17T16:44:28.950Z,72.50
2022-08-17T16:47:00.794Z,71.60
2022-08-17T16:49:37.249Z,71.50
2022-08-17T16:52:11.833Z,72.40
2022-08-17T16:54:43.466Z,72.00
2022-08-17T16:57:11.922Z,71.80
2022-08-17T16:59:42.668Z,71.80
2022-08-17T17:02:14.458Z,72.50
2022-08-17T17:04:51.795Z,73.70
2022-08-17T17:07:40.464Z,73.40
2022-08-17T17:10:20.793Z,74.10
2022-08-17T17:13:02.163Z,72.70
2022-08-17T17:15:57.453Z,73.50
2022-08-17T17:18:39.172Z,74.30
2022-08-17T17:21:12.810Z,75.20
2022-08-17T17:24:09.977Z,76.30
2022-08-17T17:26:58.001Z,78.00
2022-08-17T17:29:47.482Z,80.00
2022-08-17T17:32:50.644Z,82.60
2022-08-17T17:35:32.974Z,83.90
2022-08-17T17:38:06.255Z,85.20
2022-08-17T17:40:46.272Z,85.60
2022-08-17T17:43:37.811Z,86.50
2022-08-17T17:46:28.237Z,86.40
2022-08-17T17:48:57.920Z,86.50
2022-08-17T17:52:07.874Z,86.90
2022-08-17T17:54:39.861Z,87.40
2022-08-17T17:57:26.679Z,87.70
2022-08-17T18:00:11.657Z,88.70
2022-08-17T18:03:07.877Z,89.30
2022-08-17T18:06:13.246Z,89.10
2022-08-17T18:08:57.267Z,88.90
2022-08-17T18:11:34.925Z,87.80
2022-08-17T18:14:17.739Z,87.80
2022-08-17T18:16:46.274Z,87.80
2022-08-17T18:19:21.480Z,87.90
2022-08-17T18:22:19.761Z,88.90
2022-08-17T18:24:54.027Z,88.40
2022-08-17T18:27:25.909Z,88.40
2022-08-17T18:29:55.619Z,88.20
2022-08-17T18:32:22.891Z,87.40
2022-08-17T18:35:04.677Z,87.00
2022-08-17T18:37:50.512Z,86.80
2022-08-17T18:40:19.939Z,86.10
2022-08-17T18:42:59.636Z,85.90
2022-08-17T18:45:43.651Z,85.90
2022-08-17T18:48:28.520Z,85.70
2022-08-17T18:51:05.224Z,85.70
2022-08-17T18:53:41.362Z,85.00
2022-08-17T18:56:20.669Z,85.40
2022-08-17T18:59:21.607Z,85.50
2022-08-17T19:02:23.188Z,86.80
2022-08-17T19:05:07.244Z,87.90
2022-08-17T19:07:36.860Z,88.80
2022-08-17T19:10:22.427Z,89.70
2022-08-17T19:12:49.801Z,89.70
2022-08-17T19:15:23.043Z,89.10
2022-08-17T19:18:02.766Z,89.70
2022-08-17T19:20:35.738Z,89.00
2022-08-17T19:23:11.307Z,89.30
2022-08-17T19:25:44.602Z,90.40
2022-08-17T19:28:27.733Z,90.70
2022-08-17T19:31:01.957Z,90.10
2022-08-17T19:33:31.347Z,89.50
2022-08-17T19:36:40.395Z,88.50
2022-08-17T19:39:13.842Z,87.80
2022-08-17T19:42:02.723Z,86.90
2022-08-17T19:44:54.556Z,86.40
2022-08-17T19:47:54.376Z,86.20
2022-08-17T19:50:41.358Z,86.70
2022-08-17T19:54:01.416Z,87.00
2022-08-17T19:56:54.547Z,86.80
2022-08-17T19:59:49.375Z,86.30
2022-08-17T20:02:23.589Z,86.00
2022-08-17T20:04:57.475Z,85.90
2022-08-17T20:07:43.849Z,85.90
2022-08-17T20:10:45.147Z,85.90
2022-08-17T20:13:36.786Z,85.30
2022-08-17T20:16:03.994Z,84.80
2022-08-17T20:18:36.640Z,84.30
2022-08-17T20:21:25.845Z,84.50
2022-08-17T20:24:16.360Z,84.80
2022-08-17T20:26:55.525Z,84.60
2022-08-17T20:29:52.452Z,84.30
2022-08-17T20:32:26.125Z,84.20
2022-08-17T20:35:17.953Z,84.20
2022-08-17T20:38:12.816Z,85.10
2022-08-17T20:40:54.992Z,85.20
2022-08-17T20:43:35.556Z,84.10
2022-08-17T20:46:27.592Z,84.60
2022-08-17T20:48:59.257Z,84.60
2022-08-17T20:51:31.509Z,84.50
2022-08-17T20:54:06.645Z,83.90
2022-08-17T20:56:46.790Z,83.90
2022-08-17T20:59:25.779Z,84.30
2022-08-17T21:02:18.961Z,84.10
2022-08-17T21:04:54.893Z,84.30
2022-08-17T21:07:40.000Z,83.90
2022-08-17T21:10:16.377Z,83.40
2022-08-17T21:13:04.415Z,83.80
2022-08-17T21:15:47.432Z,84.10
2022-08-17T21:18:20.843Z,83.90
2022-08-17T21:21:02.048Z,83.40
2022-08-17T21:24:00.196Z,85.00
2022-08-17T21:26:52.009Z,85.90
2022-08-17T21:29:32.562Z,83.60
2022-08-17T21:32:03.408Z,84.20
2022-08-17T21:34:36.416Z,83.90
2022-08-17T21:37:26.003Z,83.50
2022-08-17T21:40:03.530Z,84.20
2022-08-17T21:42:38.433Z,83.60
2022-08-17T21:45:31.764Z,83.80
2022-08-17T21:48:20.528Z,84.00
2022-08-17T21:51:10.478Z,83.30
2022-08-17T21:53:44.705Z,84.00
2022-08-17T21:56:19.506Z,83.40
2022-08-17T21:58:48.559Z,83.60
2022-08-17T22:01:26.100Z,84.30
2022-08-17T22:04:08.616Z,84.60
2022-08-17T22:06:52.654Z,85.00
2022-08-17T22:09:34.495Z,84.00
2022-08-17T22:12:12.971Z,84.10
2022-08-17T22:15:04.203Z,83.80
2022-08-17T22:17:45.162Z,83.50
2022-08-17T22:20:18.772Z,83.40
2022-08-17T22:23:04.017Z,84.90
2022-08-17T22:25:34.252Z,83.70
2022-08-17T22:28:06.097Z,83.80
2022-08-17T22:30:33.511Z,82.90
2022-08-17T22:33:15.852Z,83.30
2022-08-17T22:35:44.518Z,83.70
2022-08-17T22:38:23.754Z,83.60
2022-08-17T22:40:56.742Z,83.40
2022-08-17T22:43:26.766Z,83.70
2022-08-17T22:45:57.301Z,83.40
2022-08-17T22:48:28.385Z,83.00
2022-08-17T22:51:13.808Z,82.90
2022-08-17T22:54:31.758Z,83.70
2022-08-17T22:57:22.428Z,83.60
2022-08-17T22:59:56.043Z,83.80
2022-08-17T23:02:34.666Z,83.90
2022-08-17T23:05:10.761Z,84.50
2022-08-17T23:07:43.410Z,84.40
2022-08-17T23:10:11.944Z,84.20
2022-08-17T23:12:39.661Z,84.30
2022-08-17T23:15:14.357Z,83.80
2022-08-17T23:17:42.049Z,83.70
2022-08-17T23:20:13.251Z,83.60
2022-08-17T23:22:51.425Z,83.60
2022-08-17T23:25:26.435Z,83.60
2022-08-17T23:27:53.993Z,83.70
2022-08-17T23:30:25.564Z,84.50
2022-08-17T23:32:54.367Z,84.80
2022-08-17T23:35:40.065Z,84.50
2022-08-17T23:38:11.927Z,84.20
2022-08-17T23:40:39.964Z,83.60
2022-08-17T23:43:23.348Z,83.10
2022-08-17T23:45:57.537Z,83.60
2022-08-17T23:48:35.227Z,83.50
2022-08-17T23:51:17.371Z,83.00
2022-08-17T23:53:48.153Z,83.50
2022-08-17T23:56:23.865Z,83.40
2022-08-17T23:58:53.286Z,83.80
